createdAt,value
2024-03-16T00:02:00.835Z,8.57
2024-03-16T00:05:03.766Z,8.55
2024-03-16T00:08:09.911Z,8.53
2024-03-16T00:11:12.783Z,8.52
2024-03-16T00:14:15.604Z,8.58
2024-03-16T00:17:22.654Z,8.58
2024-03-16T00:20:27.226Z,8.54
2024-03-16T00:23:30.240Z,8.48
2024-03-16T00:26:32.959Z,8.47
2024-03-16T00:29:35.717Z,8.48
2024-03-16T00:32:42.220Z,8.43
2024-03-16T00:35:45.045Z,8.41
2024-03-16T00:38:51.310Z,8.37
2024-03-16T00:41:55.255Z,8.33
2024-03-16T00:44:57.900Z,8.23
2024-03-16T00:48:05.753Z,8.26
2024-03-16T00:51:08.823Z,8.20
2024-03-16T00:54:12.729Z,8.15
2024-03-16T00:57:15.521Z,8.14
2024-03-16T01:00:19.705Z,8.08
2024-03-16T01:03:22.673Z,8.06
2024-03-16T01:06:25.602Z,8.05
2024-03-16T01:09:28.527Z,8.01
2024-03-16T01:12:31.298Z,7.98
2024-03-16T01:15:36.914Z,7.95
2024-03-16T01:18:41.291Z,7.94
2024-03-16T01:21:44.050Z,7.93
2024-03-16T01:24:46.832Z,7.92
2024-03-16T01:27:49.610Z,7.91
2024-03-16T01:30:53.285Z,7.92
2024-03-16T01:33:56.137Z,7.88
2024-03-16T01:36:58.901Z,7.94
2024-03-16T01:40:01.736Z,7.94
2024-03-16T01:43:09.135Z,7.96
2024-03-16T01:46:17.078Z,7.95
2024-03-16T01:49:20.060Z,7.97
2024-03-16T01:52:22.857Z,7.99
2024-03-16T01:55:25.623Z,8.00
2024-03-16T01:58:28.267Z,8.01
2024-03-16T02:01:34.053Z,7.98
2024-03-16T02:04:40.120Z,8.02
2024-03-16T02:07:46.287Z,8.00
2024-03-16T02:10:48.987Z,7.97
2024-03-16T02:13:52.524Z,7.95
2024-03-16T02:16:56.468Z,7.93
2024-03-16T02:19:59.240Z,7.92
2024-03-16T02:23:01.985Z,7.94
2024-03-16T02:26:09.033Z,7.94
2024-03-16T02:29:11.758Z,7.86
2024-03-16T02:32:15.771Z,7.88
2024-03-16T02:35:19.323Z,7.85
2024-03-16T02:38:22.119Z,7.86
2024-03-16T02:41:26.466Z,7.87
2024-03-16T02:44:38.428Z,7.86
2024-03-16T02:47:42.286Z,7.93
2024-03-16T02:50:45.086Z,7.91
2024-03-16T02:53:47.772Z,7.92
2024-03-16T02:56:50.741Z,7.87
2024-03-16T02:59:53.488Z,7.90
2024-03-16T03:02:56.210Z,7.91
2024-03-16T03:05:58.955Z,7.91
2024-03-16T03:09:01.715Z,7.86
2024-03-16T03:12:06.113Z,7.83
2024-03-16T03:15:10.746Z,7.83
2024-03-16T03:18:13.535Z,7.81
2024-03-16T03:21:16.716Z,7.74
2024-03-16T03:24:19.650Z,7.70
2024-03-16T03:27:22.323Z,7.68
2024-03-16T03:30:25.178Z,7.71
2024-03-16T03:33:27.951Z,7.70
2024-03-16T03:36:31.002Z,7.70
2024-03-16T03:39:33.828Z,7.71
2024-03-16T03:42:45.592Z,7.66
2024-03-16T03:45:51.729Z,7.58
2024-03-16T03:49:01.661Z,7.62
2024-03-16T03:52:05.905Z,7.63
2024-03-16T03:55:10.497Z,7.61
2024-03-16T03:58:13.292Z,7.61
2024-03-16T04:01:16.270Z,7.60
2024-03-16T04:04:19.078Z,7.57
2024-03-16T04:07:21.959Z,7.57
2024-03-16T04:10:24.676Z,7.60
2024-03-16T04:13:28.525Z,7.58
2024-03-16T04:16:31.296Z,7.55
2024-03-16T04:19:34.008Z,7.57
2024-03-16T04:22:39.886Z,7.59
2024-03-16T04:25:42.527Z,7.58
2024-03-16T04:28:45.262Z,7.62
2024-03-16T04:31:47.956Z,7.69
2024-03-16T04:34:50.690Z,7.73
2024-03-16T04:37:53.957Z,7.68
2024-03-16T04:40:59.689Z,7.65
2024-03-16T04:44:02.475Z,7.69
2024-03-16T04:47:05.728Z,7.69
2024-03-16T04:50:08.886Z,7.71
2024-03-16T04:53:12.934Z,7.72
2024-03-16T04:56:15.693Z,7.72
2024-03-16T04:59:18.683Z,7.72
2024-03-16T05:02:21.860Z,7.72
2024-03-16T05:05:24.636Z,7.64
2024-03-16T05:08:27.304Z,7.63
2024-03-16T05:11:30.057Z,7.64
2024-03-16T05:14:33.143Z,7.66
2024-03-16T05:17:37.228Z,7.62
2024-03-16T05:20:39.874Z,7.64
2024-03-16T05:23:46.731Z,7.62
2024-03-16T05:26:50.135Z,7.56
2024-03-16T05:29:52.939Z,7.57
2024-03-16T05:32:55.626Z,7.49
2024-03-16T05:36:00.143Z,7.44
2024-03-16T05:39:02.781Z,7.45
2024-03-16T05:42:05.787Z,7.49
2024-03-16T05:45:08.826Z,7.52
2024-03-16T05:48:11.628Z,7.55
2024-03-16T05:51:14.313Z,7.57
2024-03-16T05:54:17.109Z,7.63
2024-03-16T05:57:19.854Z,7.67
2024-03-16T06:00:24.196Z,7.75
2024-03-16T06:03:27.933Z,7.87
2024-03-16T06:06:33.593Z,8.04
2024-03-16T06:09:36.574Z,8.29
2024-03-16T06:12:39.360Z,8.45
2024-03-16T06:15:42.240Z,8.66
2024-03-16T06:18:48.722Z,8.89
2024-03-16T06:21:52.052Z,9.08
2024-03-16T06:24:54.811Z,9.31
2024-03-16T06:28:07.717Z,9.43
2024-03-16T06:31:12.638Z,9.58
2024-03-16T06:34:15.465Z,9.67
2024-03-16T06:37:20.972Z,9.77
2024-03-16T06:40:23.891Z,9.89
2024-03-16T06:43:26.720Z,9.94
2024-03-16T06:46:29.810Z,10.03
2024-03-16T06:49:32.508Z,10.13
2024-03-16T06:52:35.423Z,10.23
2024-03-16T06:55:38.749Z,10.33
2024-03-16T06:58:42.204Z,10.45
2024-03-16T07:01:45.425Z,10.54
2024-03-16T07:04:48.438Z,10.64
2024-03-16T07:07:51.190Z,10.72
2024-03-16T07:10:53.928Z,10.80
2024-03-16T07:13:56.707Z,10.90
2024-03-16T07:16:59.711Z,10.97
2024-03-16T07:20:02.658Z,11.05
2024-03-16T07:23:05.699Z,11.16
2024-03-16T07:26:08.791Z,11.20
2024-03-16T07:29:12.166Z,11.27
2024-03-16T07:32:14.932Z,11.38
2024-03-16T07:35:17.937Z,11.50
2024-03-16T07:38:21.024Z,11.57
2024-03-16T07:41:24.534Z,11.65
2024-03-16T07:44:27.364Z,11.83
2024-03-16T07:47:30.269Z,11.97
2024-03-16T07:50:33.228Z,12.06
2024-03-16T07:53:36.034Z,12.11
2024-03-16T07:56:38.855Z,12.22
2024-03-16T07:59:41.823Z,12.40
2024-03-16T08:02:44.585Z,12.43
2024-03-16T08:05:48.205Z,12.47
2024-03-16T08:08:51.485Z,12.64
2024-03-16T08:11:54.315Z,12.77
2024-03-16T08:14:58.285Z,12.74
2024-03-16T08:18:02.493Z,12.83
2024-03-16T08:21:07.814Z,12.96
2024-03-16T08:24:12.089Z,13.06
2024-03-16T08:27:15.210Z,13.19
2024-03-16T08:30:19.147Z,13.14
2024-03-16T08:33:21.978Z,13.22
2024-03-16T08:36:25.218Z,13.18
2024-03-16T08:39:28.403Z,13.23
2024-03-16T08:42:35.119Z,13.30
2024-03-16T08:45:37.955Z,13.29
2024-03-16T08:48:40.934Z,13.42
2024-03-16T08:51:44.276Z,13.57
2024-03-16T08:54:47.672Z,13.54
2024-03-16T08:57:50.609Z,13.25
2024-03-16T09:00:54.907Z,13.26
2024-03-16T09:03:57.863Z,13.12
2024-03-16T09:07:00.583Z,12.82
2024-03-16T09:10:03.829Z,12.69
2024-03-16T09:13:07.308Z,12.68
2024-03-16T09:16:10.143Z,12.81
2024-03-16T09:19:16.546Z,12.88
2024-03-16T09:22:19.503Z,12.76
2024-03-16T09:25:22.460Z,12.74
2024-03-16T09:28:28.730Z,12.76
2024-03-16T09:31:34.371Z,12.81
2024-03-16T09:34:37.104Z,12.89
2024-03-16T09:37:40.085Z,12.90
2024-03-16T09:40:47.068Z,12.92
